Time;durP1;ratioP1;P1;durP2;ratioP2;P2;SDS_P1;SDS_P2;PMS_P1;PMS_P2;Temp;Humidity;BMP_temperature;BMP_pressure;BME280_temperature;BME280_humidity;BME280_pressure;Samples;Min_cycle;Max_cycle;Signal;HPM_P1;HPM_P2
2023/05/23 00:00:58;;;;;;;6.45;5.80;;;16.90;99.90;;;;;;6094340;23;20832;-80
2023/05/23 00:03:26;;;;;;;7.40;6.10;;;17.00;99.60;;;;;;6091791;23;20418;-80
2023/05/23 00:05:55;;;;;;;6.50;5.90;;;17.10;98.90;;;;;;6094825;23;20381;-80
2023/05/23 00:08:22;;;;;;;6.95;6.32;;;17.10;98.90;;;;;;6116291;23;20382;-80
2023/05/23 00:10:49;;;;;;;7.55;6.63;;;17.20;99.90;;;;;;6093227;23;20689;-80
2023/05/23 00:13:16;;;;;;;8.13;6.13;;;17.10;99.90;;;;;;6092888;23;20377;-81
2023/05/23 00:15:43;;;;;;;6.80;6.10;;;17.00;99.90;;;;;;6092609;23;20432;-81
2023/05/23 00:18:10;;;;;;;6.95;6.05;;;17.00;99.90;;;;;;6092873;23;20428;-80
2023/05/23 00:20:42;;;;;;;5.93;5.43;;;17.00;99.70;;;;;;6093626;23;20382;-81
2023/05/23 00:23:11;;;;;;;6.47;5.88;;;17.10;98.90;;;;;;6092294;23;20700;-80
2023/05/23 00:25:39;;;;;;;6.15;5.30;;;17.20;97.90;;;;;;6092174;23;20385;-81
2023/05/23 00:28:07;;;;;;;6.72;5.70;;;17.30;97.00;;;;;;6093089;23;20385;-81
2023/05/23 00:30:34;;;;;;;6.80;5.50;;;17.40;96.10;;;;;;6091479;23;20372;-80
2023/05/23 00:33:01;;;;;;;6.47;4.78;;;17.50;94.60;;;;;;6092701;23;20711;-81
2023/05/23 00:35:28;;;;;;;8.68;5.00;;;17.70;93.90;;;;;;6091242;23;20389;-80
2023/05/23 00:37:55;;;;;;;5.80;5.30;;;17.70;93.30;;;;;;6094145;23;20808;-81
2023/05/23 00:40:22;;;;;;;5.40;4.90;;;17.80;93.30;;;;;;6091412;23;20389;-81
2023/05/23 00:42:49;;;;;;;6.10;4.85;;;17.80;92.40;;;;;;6093214;23;20373;-81
2023/05/23 00:45:17;;;;;;;5.60;5.07;;;17.80;92.20;;;;;;6092611;23;20386;-80
2023/05/23 00:47:45;;;;;;;6.80;5.30;;;17.90;92.30;;;;;;6092260;23;20370;-81
2023/05/23 00:50:14;;;;;;;5.38;4.88;;;17.90;91.30;;;;;;6092905;23;20769;-81
2023/05/23 00:52:43;;;;;;;5.38;4.88;;;18.00;90.90;;;;;;6093328;23;20477;-81
2023/05/23 00:55:10;;;;;;;6.65;5.55;;;18.00;90.30;;;;;;6093979;23;20378;-81
2023/05/23 00:57:43;;;;;;;5.07;4.57;;;18.00;89.70;;;;;;6091674;23;20377;-81
2023/05/23 01:03:03;;;;;;;5.57;4.60;;;18.00;89.40;;;;;;6071128;23;20869;-80
2023/05/23 01:05:33;;;;;;;6.30;5.25;;;18.00;90.50;;;;;;6094130;23;20384;-78
2023/05/23 01:08:02;;;;;;;5.67;5.17;;;17.90;90.70;;;;;;6096775;23;21204;-78
2023/05/23 01:10:30;;;;;;;5.30;4.80;;;17.90;90.60;;;;;;6121407;23;20427;-78
2023/05/23 01:12:57;;;;;;;5.78;5.05;;;17.90;90.70;;;;;;6096647;23;20376;-78
2023/05/23 01:15:39;;;;;;;7.63;5.43;;;17.80;91.00;;;;;;6121687;23;20446;-78
2023/05/23 01:18:11;;;;;;;6.32;5.22;;;17.80;91.00;;;;;;6097830;23;20376;-79
2023/05/23 01:20:44;;;;;;;5.95;5.35;;;17.80;90.60;;;;;;6122539;23;20814;-78
2023/05/23 01:23:39;;;;;;;5.80;5.20;;;17.80;90.60;;;;;;6096760;23;20384;-79
2023/05/23 01:26:35;;;;;;;5.93;5.40;;;17.70;90.70;;;;;;6096558;23;20745;-78
2023/05/23 01:29:17;;;;;;;6.03;4.63;;;17.70;90.70;;;;;;6095032;23;20372;-79
2023/05/23 01:31:48;;;;;;;5.85;4.85;;;17.70;90.60;;;;;;6121826;23;20388;-78
2023/05/23 01:34:17;;;;;;;5.60;4.97;;;17.70;90.10;;;;;;6097893;23;20374;-78
2023/05/23 01:36:45;;;;;;;5.45;4.40;;;17.70;90.20;;;;;;6093854;23;20386;-78
2023/05/23 01:39:12;;;;;;;5.45;4.95;;;17.70;90.50;;;;;;6122878;23;20372;-79
2023/05/23 01:41:39;;;;;;;5.90;5.20;;;17.70;89.90;;;;;;6121779;23;20379;-78
2023/05/23 01:44:06;;;;;;;5.60;5.10;;;17.70;90.00;;;;;;6095695;23;20713;-78
2023/05/23 01:46:38;;;;;;;6.57;5.03;;;17.70;89.50;;;;;;6096876;23;20742;-79
2023/05/23 01:49:08;;;;;;;5.32;4.82;;;17.70;88.70;;;;;;6096807;23;20382;-78
2023/05/23 01:51:35;;;;;;;6.80;5.07;;;17.70;87.50;;;;;;6097347;23;20439;-80
2023/05/23 01:54:02;;;;;;;5.70;4.90;;;17.80;87.50;;;;;;6121878;23;20441;-78
2023/05/23 01:56:30;;;;;;;5.60;4.90;;;17.70;87.10;;;;;;6122152;23;20983;-79
2023/05/23 01:58:56;;;;;;;6.18;5.07;;;17.80;86.80;;;;;;6096755;23;20750;-78
2023/05/23 02:01:23;;;;;;;6.10;5.18;;;17.80;86.70;;;;;;6091979;23;20384;-77
2023/05/23 02:03:50;;;;;;;6.63;4.95;;;17.80;86.00;;;;;;6067745;23;20373;-78
2023/05/23 02:06:17;;;;;;;7.35;5.38;;;17.80;85.60;;;;;;6068625;23;20381;-80
2023/05/23 02:08:44;;;;;;;5.28;4.88;;;17.80;85.30;;;;;;6069514;23;20918;-79
2023/05/23 02:11:11;;;;;;;6.15;5.22;;;17.80;85.30;;;;;;6067562;23;20425;-82
2023/05/23 02:13:38;;;;;;;5.85;5.25;;;17.80;85.80;;;;;;6068738;23;20708;-82
2023/05/23 02:16:05;;;;;;;5.38;4.88;;;17.80;85.60;;;;;;6067931;23;20470;-83
2023/05/23 02:18:32;;;;;;;6.13;5.23;;;17.70;86.60;;;;;;6068749;23;20752;-81
2023/05/23 02:20:59;;;;;;;5.40;4.68;;;17.70;87.30;;;;;;6067261;23;20707;-80
2023/05/23 02:23:26;;;;;;;6.20;5.30;;;17.70;86.40;;;;;;6066991;23;20390;-81
2023/05/23 02:25:52;;;;;;;6.15;4.97;;;17.70;86.70;;;;;;6067302;23;20428;-81
2023/05/23 02:28:19;;;;;;;6.00;5.35;;;17.60;86.60;;;;;;6092143;23;20377;-80
2023/05/23 02:30:46;;;;;;;5.63;5.13;;;17.60;87.50;;;;;;6068110;23;20377;-81
2023/05/23 02:33:13;;;;;;;5.90;5.22;;;17.60;87.40;;;;;;6067704;23;20376;-80
2023/05/23 02:35:40;;;;;;;7.40;5.10;;;17.50;87.20;;;;;;6067606;23;20720;-81
2023/05/23 02:38:07;;;;;;;6.22;4.80;;;17.50;86.60;;;;;;6092175;23;20715;-80
2023/05/23 02:40:34;;;;;;;7.57;5.10;;;17.50;86.60;;;;;;6069850;23;20827;-80
2023/05/23 02:43:01;;;;;;;5.20;4.78;;;17.50;86.50;;;;;;6069510;23;20432;-79
2023/05/23 02:45:28;;;;;;;6.72;5.20;;;17.60;84.40;;;;;;6069978;23;20424;-80
2023/05/23 02:47:55;;;;;;;6.22;5.20;;;17.50;84.40;;;;;;6069231;23;20392;-80
2023/05/23 02:50:22;;;;;;;5.18;4.68;;;17.50;84.80;;;;;;6094826;23;20375;-80
2023/05/23 02:52:48;;;;;;;6.00;5.15;;;17.50;84.90;;;;;;6070419;23;20715;-80
2023/05/23 02:55:15;;;;;;;6.22;4.90;;;17.50;86.40;;;;;;6069200;23;20373;-80
2023/05/23 02:57:42;;;;;;;5.53;4.97;;;17.40;86.20;;;;;;6070077;23;20377;-79
2023/05/23 03:00:10;;;;;;;5.37;4.83;;;17.40;87.20;;;;;;6093768;23;20448;-78
2023/05/23 03:02:37;;;;;;;6.93;5.07;;;17.30;87.20;;;;;;6069405;23;20377;-78
2023/05/23 03:05:05;;;;;;;5.38;4.82;;;17.30;87.80;;;;;;6094054;23;20877;-80
2023/05/23 03:07:32;;;;;;;5.78;5.15;;;17.30;87.80;;;;;;6069909;23;20378;-80
2023/05/23 03:10:00;;;;;;;5.50;4.82;;;17.20;87.90;;;;;;6092922;23;20369;-80
2023/05/23 03:12:28;;;;;;;6.95;5.07;;;17.20;87.90;;;;;;6069783;23;20369;-78
2023/05/23 03:14:54;;;;;;;5.50;4.90;;;17.20;87.40;;;;;;6069007;23;20433;-79
2023/05/23 03:17:24;;;;;;;5.60;5.00;;;17.20;86.70;;;;;;6070093;23;20365;-81
2023/05/23 03:19:51;;;;;;;5.97;5.30;;;17.20;86.90;;;;;;6094957;23;20704;-79
2023/05/23 03:22:18;;;;;;;5.90;4.80;;;17.20;88.00;;;;;;6069301;23;20756;-80
2023/05/23 03:24:45;;;;;;;5.15;4.65;;;17.20;87.60;;;;;;6070047;23;20381;-81
2023/05/23 03:27:12;;;;;;;5.10;4.63;;;17.10;87.50;;;;;;6069111;23;20748;-80
2023/05/23 03:29:39;;;;;;;7.80;4.93;;;17.10;88.00;;;;;;6069840;23;20374;-80
2023/05/23 03:32:06;;;;;;;5.90;5.30;;;17.20;87.40;;;;;;6068589;23;20378;-80
2023/05/23 03:34:35;;;;;;;6.47;4.90;;;17.10;87.80;;;;;;6069715;23;20388;-84
2023/05/23 03:37:03;;;;;;;5.75;4.70;;;17.10;87.80;;;;;;6068759;23;20369;-81
2023/05/23 03:39:30;;;;;;;5.65;4.85;;;17.10;86.70;;;;;;6069519;23;20721;-81
2023/05/23 03:41:57;;;;;;;5.50;4.93;;;17.10;86.40;;;;;;6069081;23;20757;-81
2023/05/23 03:44:24;;;;;;;6.32;5.28;;;17.10;86.40;;;;;;6069619;23;20374;-81
2023/05/23 03:46:51;;;;;;;5.93;5.00;;;17.10;86.80;;;;;;6093634;23;20862;-81
2023/05/23 03:49:18;;;;;;;5.47;4.97;;;17.20;85.70;;;;;;6068184;23;20385;-78
2023/05/23 03:51:45;;;;;;;6.07;5.30;;;17.20;84.80;;;;;;6069113;23;20377;-80
2023/05/23 03:54:12;;;;;;;5.45;4.63;;;17.20;86.50;;;;;;6068397;23;20381;-78
2023/05/23 03:56:39;;;;;;;5.30;4.72;;;17.20;85.30;;;;;;6069309;23;20377;-78
2023/05/23 03:59:06;;;;;;;5.53;5.03;;;17.20;84.40;;;;;;6093082;23;20385;-79
2023/05/23 04:01:33;;;;;;;6.47;5.30;;;17.20;85.30;;;;;;6069198;23;20390;-78
2023/05/23 04:04:00;;;;;;;6.80;5.20;;;17.10;86.50;;;;;;6067804;23;20432;-78
2023/05/23 04:06:30;;;;;;;5.73;4.87;;;17.10;86.30;;;;;;6068855;23;20374;-78
2023/05/23 04:08:56;;;;;;;6.30;4.95;;;17.00;87.20;;;;;;6068949;23;20437;-79
2023/05/23 04:11:23;;;;;;;5.40;4.90;;;17.00;86.50;;;;;;6092198;23;20370;-78
2023/05/23 04:13:50;;;;;;;5.95;5.38;;;17.00;86.90;;;;;;6069109;23;20445;-80
2023/05/23 04:16:18;;;;;;;5.38;4.95;;;17.10;86.70;;;;;;6067931;23;20424;-78
2023/05/23 04:18:46;;;;;;;6.20;5.00;;;17.00;84.90;;;;;;6094474;23;20386;-78
2023/05/23 04:21:13;;;;;;;5.35;4.70;;;17.20;84.20;;;;;;6067907;23;20444;-81
2023/05/23 04:23:40;;;;;;;5.38;4.88;;;17.10;83.60;;;;;;6068930;23;20701;-79
2023/05/23 04:26:07;;;;;;;5.70;5.10;;;17.20;82.40;;;;;;6067992;23;20380;-78
2023/05/23 04:28:34;;;;;;;5.72;4.50;;;17.30;81.60;;;;;;6093206;23;20373;-78
2023/05/23 04:31:02;;;;;;;6.68;4.78;;;17.30;80.50;;;;;;6068235;23;20384;-79
2023/05/23 04:33:29;;;;;;;5.18;4.68;;;17.40;79.80;;;;;;6069643;23;20373;-78
2023/05/23 04:35:56;;;;;;;5.35;4.82;;;17.50;80.20;;;;;;6068407;23;20716;-78
2023/05/23 04:38:26;;;;;;;6.95;4.70;;;17.50;79.50;;;;;;6068725;23;20657;-80
2023/05/23 04:40:53;;;;;;;5.40;4.90;;;17.50;80.50;;;;;;6094121;23;20385;-78
2023/05/23 04:43:20;;;;;;;7.40;5.07;;;17.50;80.20;;;;;;6068256;23;20481;-78
2023/05/23 04:45:50;;;;;;;5.53;4.40;;;17.50;80.00;;;;;;6068705;23;20452;-78
2023/05/23 04:48:20;;;;;;;7.20;6.07;;;17.50;80.10;;;;;;6068406;23;20381;-78
2023/05/23 04:50:47;;;;;;;7.10;5.10;;;17.50;80.80;;;;;;6068723;23;20476;-78
2023/05/23 04:53:14;;;;;;;5.63;5.00;;;17.50;80.00;;;;;;6068485;23;20457;-78
2023/05/23 04:55:41;;;;;;;5.07;4.57;;;17.50;79.80;;;;;;6069257;23;20405;-78
2023/05/23 04:58:09;;;;;;;5.67;4.80;;;17.50;80.30;;;;;;6093066;23;20385;-78
2023/05/23 05:00:36;;;;;;;5.43;4.63;;;17.50;79.20;;;;;;6093376;23;20733;-80
2023/05/23 05:03:03;;;;;;;5.22;4.43;;;17.50;78.50;;;;;;6068087;23;20388;-79
2023/05/23 05:05:30;;;;;;;6.57;4.80;;;17.60;79.10;;;;;;6068427;23;20381;-80
2023/05/23 05:07:56;;;;;;;6.47;4.75;;;17.60;80.00;;;;;;6068677;23;20381;-80
2023/05/23 05:10:23;;;;;;;5.17;4.40;;;17.60;81.30;;;;;;6090919;23;20462;-81
2023/05/23 05:12:50;;;;;;;6.40;4.70;;;17.60;79.10;;;;;;6068462;23;20429;-80
2023/05/23 05:15:18;;;;;;;5.10;4.55;;;17.60;78.90;;;;;;6067591;23;20422;-80
2023/05/23 05:17:45;;;;;;;4.87;4.33;;;17.70;78.00;;;;;;6068464;23;20381;-80
2023/05/23 05:20:16;;;;;;;4.93;4.38;;;17.70;77.00;;;;;;6068041;23;20409;-79
2023/05/23 05:22:43;;;;;;;5.25;4.50;;;17.80;77.20;;;;;;6067861;23;20381;-78
2023/05/23 05:25:10;;;;;;;5.95;4.72;;;17.80;78.40;;;;;;6091496;23;20386;-79
2023/05/23 05:27:38;;;;;;;7.35;4.53;;;17.80;78.60;;;;;;6068446;23;20370;-78
2023/05/23 05:30:09;;;;;;;4.78;4.38;;;17.80;77.40;;;;;;6067734;23;20381;-78
2023/05/23 05:32:35;;;;;;;5.95;4.68;;;17.90;76.70;;;;;;6068467;23;20752;-79
2023/05/23 05:35:06;;;;;;;4.77;4.27;;;17.90;75.50;;;;;;6068531;23;20392;-82
2023/05/23 05:37:33;;;;;;;6.68;4.63;;;17.90;76.30;;;;;;6067621;23;20382;-80
2023/05/23 05:40:05;;;;;;;6.15;4.95;;;18.00;76.00;;;;;;6068696;23;20388;-81
2023/05/23 05:42:32;;;;;;;4.97;4.40;;;18.00;75.70;;;;;;6067621;23;20385;-79
2023/05/23 05:44:59;;;;;;;5.38;4.15;;;18.00;75.80;;;;;;6092494;23;20389;-78
2023/05/23 05:47:26;;;;;;;6.05;4.72;;;18.10;75.00;;;;;;6092741;23;20397;-78
2023/05/23 05:49:53;;;;;;;6.70;4.60;;;18.20;74.50;;;;;;6068363;23;20373;-78
2023/05/23 05:52:20;;;;;;;5.15;4.60;;;18.20;74.10;;;;;;6067546;23;20386;-79
2023/05/23 05:54:46;;;;;;;6.47;4.40;;;18.20;73.90;;;;;;6068780;23;20389;-78
2023/05/23 05:57:13;;;;;;;4.80;4.30;;;18.30;73.30;;;;;;6092912;23;20399;-78
2023/05/23 05:59:40;;;;;;;4.97;4.47;;;18.30;72.30;;;;;;6093524;23;20753;-78
2023/05/23 06:02:07;;;;;;;5.20;4.38;;;18.40;71.70;;;;;;6068425;23;20385;-80
2023/05/23 06:04:35;;;;;;;5.10;4.50;;;18.40;71.90;;;;;;6067237;23;20386;-78
2023/05/23 06:07:02;;;;;;;6.68;4.25;;;18.50;71.30;;;;;;6068597;23;20823;-79
2023/05/23 06:09:28;;;;;;;6.50;5.30;;;18.50;71.80;;;;;;6067324;23;20382;-80
2023/05/23 06:11:55;;;;;;;6.97;4.90;;;18.60;71.90;;;;;;6068960;23;20393;-78
2023/05/23 06:14:22;;;;;;;5.17;4.30;;;18.70;69.90;;;;;;6069683;23;20385;-79
2023/05/23 06:16:50;;;;;;;7.07;4.68;;;18.70;72.20;;;;;;6070659;23;20464;-78
2023/05/23 06:19:17;;;;;;;5.25;4.45;;;18.80;69.80;;;;;;6094426;23;20377;-80
2023/05/23 06:21:44;;;;;;;4.88;4.38;;;18.80;70.50;;;;;;6070374;23;20413;-79
2023/05/23 06:24:11;;;;;;;4.77;4.33;;;18.80;70.50;;;;;;6070345;23;20428;-79
2023/05/23 06:26:38;;;;;;;7.72;4.70;;;18.90;70.20;;;;;;6070110;23;20413;-79
2023/05/23 06:29:05;;;;;;;4.78;4.30;;;18.90;69.60;;;;;;6070306;23;20409;-79
2023/05/23 06:31:32;;;;;;;4.38;3.95;;;19.00;68.30;;;;;;6069623;23;20399;-79
2023/05/23 06:33:59;;;;;;;4.80;4.35;;;19.10;67.20;;;;;;6070139;23;20858;-79
2023/05/23 06:36:26;;;;;;;5.45;4.47;;;19.10;68.20;;;;;;6069399;23;20373;-79
2023/05/23 06:38:53;;;;;;;5.80;4.68;;;19.20;67.20;;;;;;6070279;23;20412;-81
2023/05/23 06:41:21;;;;;;;5.17;4.33;;;19.30;64.40;;;;;;6093375;23;20389;-82
2023/05/23 06:43:48;;;;;;;5.00;4.33;;;19.30;65.50;;;;;;6069957;23;20392;-81
2023/05/23 06:46:15;;;;;;;6.63;4.05;;;19.30;66.70;;;;;;6069817;23;20444;-82
2023/05/23 06:48:42;;;;;;;5.90;4.75;;;19.40;65.90;;;;;;6070447;23;20373;-81
2023/05/23 06:51:09;;;;;;;5.00;4.50;;;19.40;68.30;;;;;;6094407;23;20373;-82
2023/05/23 06:53:36;;;;;;;5.70;4.65;;;19.50;65.80;;;;;;6069350;23;20364;-80
2023/05/23 06:56:03;;;;;;;6.07;4.63;;;19.60;65.70;;;;;;6070515;23;20751;-79
2023/05/23 06:58:30;;;;;;;5.15;4.28;;;19.70;65.10;;;;;;6068999;23;20748;-82
2023/05/23 07:00:57;;;;;;;6.03;4.73;;;19.80;64.80;;;;;;6069981;23;20382;-81
2023/05/23 07:03:24;;;;;;;8.20;5.03;;;19.90;63.20;;;;;;6069238;23;20381;-81
2023/05/23 07:05:51;;;;;;;7.27;4.97;;;20.00;64.30;;;;;;6070515;23;20764;-80
2023/05/23 07:08:18;;;;;;;6.72;4.80;;;20.00;64.60;;;;;;6093844;23;20452;-79
2023/05/23 07:10:45;;;;;;;6.53;4.63;;;20.00;65.40;;;;;;6070138;23;20384;-82
2023/05/23 07:13:12;;;;;;;6.97;4.30;;;20.10;67.00;;;;;;6069929;23;20373;-81
2023/05/23 07:15:39;;;;;;;4.68;4.05;;;20.20;65.40;;;;;;6093245;23;20370;-82
2023/05/23 07:18:06;;;;;;;6.63;4.55;;;20.30;65.70;;;;;;6070180;23;20444;-79
2023/05/23 07:20:33;;;;;;;4.57;4.10;;;20.30;63.70;;;;;;6069159;23;20393;-80
2023/05/23 07:23:00;;;;;;;5.07;4.07;;;20.40;63.40;;;;;;6069533;23;20474;-78
2023/05/23 07:25:27;;;;;;;6.68;5.10;;;20.60;62.60;;;;;;6068570;23;20382;-79
2023/05/23 07:27:54;;;;;;;5.97;4.38;;;20.70;61.70;;;;;;6069950;23;20418;-79
2023/05/23 07:30:21;;;;;;;5.47;4.47;;;20.80;60.20;;;;;;6094186;23;20374;-79
2023/05/23 07:32:48;;;;;;;6.80;4.20;;;20.90;62.40;;;;;;6069878;23;20381;-80
2023/05/23 07:35:15;;;;;;;5.20;4.07;;;21.00;59.80;;;;;;6093471;23;20433;-79
2023/05/23 07:37:43;;;;;;;4.75;3.78;;;21.10;59.60;;;;;;6068923;23;20894;-78
2023/05/23 07:40:10;;;;;;;8.43;5.07;;;21.20;60.90;;;;;;6069880;23;20377;-79
2023/05/23 07:42:37;;;;;;;7.57;4.82;;;21.40;61.30;;;;;;6093697;23;20758;-79
2023/05/23 07:45:04;;;;;;;5.53;4.38;;;21.50;59.30;;;;;;6069556;23;20381;-78
2023/05/23 07:47:31;;;;;;;5.82;4.30;;;21.60;60.20;;;;;;6093549;23;20373;-79
2023/05/23 07:50:01;;;;;;;8.45;3.70;;;21.80;60.50;;;;;;6069757;23;20389;-79
2023/05/23 07:52:30;;;;;;;4.88;3.90;;;21.90;60.40;;;;;;6068917;23;20409;-79
2023/05/23 07:54:58;;;;;;;4.13;3.72;;;22.10;59.50;;;;;;6070144;23;20381;-79
2023/05/23 07:57:25;;;;;;;4.20;3.80;;;22.20;57.10;;;;;;6068497;23;20378;-79
2023/05/23 07:59:53;;;;;;;7.13;5.20;;;22.40;57.90;;;;;;6069453;23;20393;-79
2023/05/23 08:02:20;;;;;;;7.63;5.30;;;22.50;56.20;;;;;;6069507;23;20386;-79
2023/05/23 08:04:47;;;;;;;4.85;4.28;;;22.70;56.70;;;;;;6068833;23;20767;-79
2023/05/23 08:07:14;;;;;;;7.70;4.40;;;22.80;55.70;;;;;;6070093;23;20385;-80
2023/05/23 08:09:45;;;;;;;4.55;3.78;;;22.90;55.00;;;;;;6068796;23;20393;-79
2023/05/23 08:12:12;;;;;;;4.70;3.90;;;23.10;53.40;;;;;;6069532;23;20374;-79
2023/05/23 08:14:39;;;;;;;24.67;4.57;;;23.30;53.80;;;;;;6092119;23;20412;-79
2023/05/23 08:17:17;;;;;;;4.32;3.20;;;23.40;52.80;;;;;;6094250;23;20891;-79
2023/05/23 08:19:44;;;;;;;3.58;3.25;;;23.50;53.80;;;;;;6068091;23;20381;-79
2023/05/23 08:22:11;;;;;;;4.05;3.67;;;23.60;54.30;;;;;;6069397;23;20444;-79
2023/05/23 08:24:38;;;;;;;4.80;3.50;;;23.70;53.80;;;;;;6093334;23;20377;-79
2023/05/23 08:27:06;;;;;;;33.40;4.78;;;23.90;52.80;;;;;;6069418;23;20389;-79
2023/05/23 08:29:34;;;;;;;42.80;5.03;;;24.00;52.30;;;;;;6092508;23;20381;-79
2023/05/23 08:32:01;;;;;;;17.53;4.00;;;24.00;51.00;;;;;;6069305;23;20378;-80
2023/05/23 08:34:28;;;;;;;43.27;5.37;;;24.10;51.10;;;;;;6068691;23;20382;-80
2023/05/23 08:36:55;;;;;;;16.85;3.92;;;24.20;50.00;;;;;;6069163;23;20775;-79
2023/05/23 08:39:22;;;;;;;36.13;5.07;;;24.30;50.90;;;;;;6069466;23;20388;-79
2023/05/23 08:41:49;;;;;;;44.95;5.18;;;24.50;51.10;;;;;;6067802;23;20381;-79
2023/05/23 08:44:16;;;;;;;86.28;6.78;;;24.70;50.80;;;;;;6069034;23;20378;-79
2023/05/23 08:46:48;;;;;;;90.22;7.63;;;24.90;49.30;;;;;;6067691;23;20393;-79
2023/05/23 08:49:17;;;;;;;57.43;5.30;;;25.10;49.90;;;;;;6069347;23;20384;-79
2023/05/23 08:51:45;;;;;;;27.08;4.47;;;25.30;48.00;;;;;;6068134;23;20385;-79
2023/05/23 08:54:12;;;;;;;140.32;9.25;;;25.40;46.80;;;;;;6069165;23;20369;-79
2023/05/23 08:56:40;;;;;;;123.07;8.37;;;25.50;45.80;;;;;;6091423;23;20377;-79
2023/05/23 08:59:09;;;;;;;94.15;6.75;;;25.60;46.00;;;;;;6092409;23;20378;-79
2023/05/23 09:01:38;;;;;;;63.20;5.45;;;25.70;45.70;;;;;;6067613;23;20386;-79
2023/05/23 09:04:06;;;;;;;43.17;4.72;;;25.90;46.20;;;;;;6064887;23;20395;-79
2023/05/23 09:06:34;;;;;;;81.45;6.10;;;26.10;46.30;;;;;;6087088;23;20381;-80
2023/05/23 09:09:01;;;;;;;52.07;5.40;;;26.30;46.20;;;;;;6062659;23;20397;-79
2023/05/23 09:11:27;;;;;;;130.85;8.93;;;26.20;46.10;;;;;;6063193;23;20389;-79
2023/05/23 09:13:54;;;;;;;121.30;8.05;;;26.40;47.00;;;;;;6065108;23;20378;-82
2023/05/23 09:16:22;;;;;;;121.55;7.80;;;26.60;47.20;;;;;;6064103;23;20371;-79
2023/05/23 09:18:49;;;;;;;87.15;7.13;;;26.70;47.70;;;;;;6064142;23;20786;-79
2023/05/23 09:21:16;;;;;;;118.65;7.45;;;26.90;48.10;;;;;;6063579;23;20533;-79
2023/05/23 09:23:43;;;;;;;91.35;6.60;;;27.00;46.20;;;;;;6063462;23;20431;-79
2023/05/23 09:26:12;;;;;;;216.13;11.15;;;26.90;46.80;;;;;;6064203;23;20379;-79
2023/05/23 09:28:42;;;;;;;132.57;8.70;;;27.00;45.40;;;;;;6062823;23;20846;-80
2023/05/23 09:31:09;;;;;;;163.85;8.93;;;27.00;46.10;;;;;;6065490;23;20391;-79
2023/05/23 09:33:46;;;;;;;122.07;7.80;;;27.10;46.90;;;;;;6062667;23;20771;-80
2023/05/23 09:36:13;;;;;;;202.38;10.95;;;27.30;46.90;;;;;;6063553;23;20385;-79
2023/05/23 09:38:41;;;;;;;97.93;7.43;;;27.40;44.60;;;;;;6062903;23;20738;-80
2023/05/23 09:41:11;;;;;;;114.78;6.70;;;27.30;45.30;;;;;;6063173;23;20379;-80
2023/05/23 09:43:39;;;;;;;3.92;3.40;;;27.30;45.10;;;;;;6062734;23;20387;-79
2023/05/23 09:46:08;;;;;;;3.45;3.15;;;27.40;46.00;;;;;;6063261;23;20383;-79
2023/05/23 09:48:35;;;;;;;3.53;3.20;;;27.40;45.30;;;;;;6061689;23;20444;-80
2023/05/23 09:51:06;;;;;;;3.95;3.33;;;27.50;46.70;;;;;;6062896;23;20378;-80
2023/05/23 09:53:33;;;;;;;3.50;3.20;;;27.50;46.00;;;;;;6063061;23;20454;-79
2023/05/23 09:56:02;;;;;;;4.28;3.22;;;27.60;45.80;;;;;;6063862;23;20379;-80
2023/05/23 09:58:31;;;;;;;5.65;3.72;;;27.70;45.10;;;;;;6063632;23;20394;-80
2023/05/23 10:01:02;;;;;;;5.13;3.40;;;27.80;45.50;;;;;;6062852;23;20746;-80
2023/05/23 10:03:49;;;;;;;4.27;3.30;;;27.80;44.50;;;;;;6079494;23;20780;-80
2023/05/23 10:06:30;;;;;;;5.13;3.50;;;27.70;44.40;;;;;;6092107;23;20380;-80
2023/05/23 10:09:05;;;;;;;3.85;3.42;;;27.70;42.90;;;;;;6067578;23;20386;-80
2023/05/23 10:11:34;;;;;;;4.45;3.40;;;27.60;45.40;;;;;;6068297;23;20693;-79
2023/05/23 10:14:05;;;;;;;5.27;3.63;;;27.50;45.90;;;;;;6091507;23;20388;-80
2023/05/23 10:16:38;;;;;;;3.92;3.40;;;27.70;47.00;;;;;;6067854;23;20401;-80
2023/05/23 10:19:11;;;;;;;6.63;3.30;;;27.70;44.50;;;;;;6091957;23;20388;-80
2023/05/23 10:21:48;;;;;;;4.95;3.47;;;27.70;46.80;;;;;;6068665;23;20373;-80
2023/05/23 10:24:16;;;;;;;4.05;3.33;;;27.80;47.00;;;;;;6067348;23;20377;-80
2023/05/23 10:26:44;;;;;;;5.57;3.67;;;27.90;46.30;;;;;;6068493;23;20708;-79
2023/05/23 10:29:11;;;;;;;4.10;3.20;;;27.90;46.40;;;;;;6067510;23;20376;-79
2023/05/23 10:31:38;;;;;;;5.03;3.40;;;27.90;44.60;;;;;;6068461;23;20366;-80
2023/05/23 10:34:22;;;;;;;5.20;3.88;;;27.90;45.20;;;;;;6067851;23;20370;-79
2023/05/23 10:37:03;;;;;;;5.82;3.72;;;27.90;45.50;;;;;;6067658;23;20804;-80
2023/05/23 10:39:39;;;;;;;4.93;3.60;;;27.80;44.90;;;;;;6067105;23;20409;-79
2023/05/23 10:42:23;;;;;;;4.97;3.20;;;27.80;46.30;;;;;;6090940;23;20372;-79
2023/05/23 10:44:50;;;;;;;4.18;3.78;;;27.90;49.20;;;;;;6068367;23;20401;-79
2023/05/23 10:47:30;;;;;;;4.22;3.80;;;27.90;45.60;;;;;;6067772;23;20429;-80
2023/05/23 10:49:57;;;;;;;4.00;3.45;;;28.00;47.50;;;;;;6068274;23;20389;-80
2023/05/23 10:52:27;;;;;;;3.92;3.63;;;28.30;47.80;;;;;;6092511;23;20388;-80
2023/05/23 10:54:57;;;;;;;3.90;3.50;;;28.30;45.10;;;;;;6068459;23;20377;-80
2023/05/23 10:57:28;;;;;;;4.30;3.50;;;28.30;42.90;;;;;;6067230;23;20385;-79
2023/05/23 10:59:55;;;;;;;4.78;3.60;;;28.30;44.00;;;;;;6095398;23;20696;-79
2023/05/23 11:02:26;;;;;;;4.20;3.67;;;28.50;42.30;;;;;;6068446;23;20389;-80
2023/05/23 11:05:22;;;;;;;4.43;3.70;;;28.50;44.00;;;;;;6070113;23;20453;-80
2023/05/23 11:08:12;;;;;;;4.50;3.50;;;28.60;43.80;;;;;;6069471;23;20424;-80
2023/05/23 11:10:58;;;;;;;4.43;3.40;;;28.60;42.80;;;;;;6068816;23;20377;-80
2023/05/23 11:13:51;;;;;;;4.13;3.20;;;28.60;40.30;;;;;;6068889;23;20378;-81
2023/05/23 11:16:28;;;;;;;4.18;3.20;;;28.70;40.10;;;;;;6069241;23;20380;-82
2023/05/23 11:19:18;;;;;;;3.67;3.27;;;28.80;40.40;;;;;;6069798;23;20397;-80
2023/05/23 11:21:49;;;;;;;3.90;3.30;;;29.00;40.00;;;;;;6061668;23;20441;-80
2023/05/23 11:24:16;;;;;;;3.42;3.13;;;29.00;39.10;;;;;;6069516;23;20392;-79
2023/05/23 11:27:03;;;;;;;4.13;3.47;;;29.00;38.40;;;;;;6068629;23;20871;-81
2023/05/23 11:29:30;;;;;;;3.42;3.10;;;28.90;40.10;;;;;;6069543;23;20865;-80
2023/05/23 11:31:57;;;;;;;3.53;2.88;;;29.00;38.90;;;;;;6092858;23;20449;-80
2023/05/23 11:34:25;;;;;;;3.97;2.77;;;29.20;38.80;;;;;;6069804;23;20715;-80
2023/05/23 11:36:54;;;;;;;3.83;3.17;;;29.30;36.90;;;;;;6068698;23;20395;-80
2023/05/23 11:39:22;;;;;;;4.53;2.80;;;29.30;35.30;;;;;;6094621;23;20405;-79
2023/05/23 11:42:02;;;;;;;5.37;3.10;;;29.00;35.90;;;;;;6069019;23;20714;-80
2023/05/23 11:44:29;;;;;;;4.43;3.33;;;28.80;35.50;;;;;;6069756;23;20720;-80
2023/05/23 11:47:05;;;;;;;3.50;3.20;;;28.80;38.20;;;;;;6068787;23;20390;-80
2023/05/23 11:49:35;;;;;;;3.08;2.78;;;28.80;37.10;;;;;;6070101;23;20416;-80
2023/05/23 11:52:02;;;;;;;4.28;3.47;;;28.90;38.60;;;;;;6092717;23;20695;-80
2023/05/23 11:54:29;;;;;;;3.92;3.53;;;29.10;37.30;;;;;;6094381;23;20736;-80
2023/05/23 11:57:00;;;;;;;4.70;3.65;;;29.30;38.80;;;;;;6068395;23;20385;-80
2023/05/23 11:59:27;;;;;;;5.00;3.75;;;29.40;40.20;;;;;;6094526;23;20380;-81
2023/05/23 12:01:54;;;;;;;4.05;3.42;;;29.50;38.90;;;;;;6068148;23;20401;-80
2023/05/23 12:04:23;;;;;;;4.40;3.65;;;29.50;37.80;;;;;;6069173;23;20388;-81
2023/05/23 12:06:51;;;;;;;3.67;3.25;;;29.60;36.30;;;;;;6068290;23;20477;-80
2023/05/23 12:09:17;;;;;;;5.45;3.45;;;29.60;36.40;;;;;;6093292;23;20381;-79
2023/05/23 12:11:44;;;;;;;4.25;3.03;;;29.50;37.10;;;;;;6068539;23;20381;-80
2023/05/23 12:14:16;;;;;;;4.13;3.28;;;29.60;37.50;;;;;;6069721;23;20433;-79
2023/05/23 12:16:45;;;;;;;4.55;3.40;;;29.60;39.00;;;;;;6068186;23;20385;-80
2023/05/23 12:19:15;;;;;;;4.60;3.17;;;29.70;37.50;;;;;;6069636;23;20414;-80
2023/05/23 12:21:44;;;;;;;4.95;3.47;;;29.70;36.20;;;;;;6068069;23;20741;-81
2023/05/23 12:24:22;;;;;;;3.47;2.80;;;29.80;37.20;;;;;;6069048;23;20468;-80
2023/05/23 12:26:49;;;;;;;3.50;3.10;;;30.00;37.10;;;;;;6068187;23;20473;-80
2023/05/23 12:29:29;;;;;;;7.22;3.45;;;30.30;37.60;;;;;;6093824;23;20384;-81
2023/05/23 12:32:02;;;;;;;3.53;2.90;;;30.50;36.40;;;;;;6069060;23;20407;-80
2023/05/23 12:34:29;;;;;;;5.35;3.25;;;30.50;36.00;;;;;;6069155;23;20382;-80
2023/05/23 12:36:57;;;;;;;3.42;2.83;;;30.40;35.10;;;;;;6068170;23;20476;-80
2023/05/23 12:39:44;;;;;;;3.22;2.75;;;30.20;34.80;;;;;;6071688;23;20382;-80
2023/05/23 12:42:11;;;;;;;3.55;3.13;;;30.10;34.40;;;;;;6092339;23;20405;-80
2023/05/23 12:44:42;;;;;;;5.67;2.90;;;30.10;34.40;;;;;;6068921;23;20433;-80
2023/05/23 12:47:12;;;;;;;4.35;2.90;;;29.90;33.60;;;;;;6068000;23;20413;-79
2023/05/23 12:49:39;;;;;;;4.53;3.30;;;30.00;34.70;;;;;;6069101;23;20377;-79
2023/05/23 12:52:06;;;;;;;3.70;3.25;;;30.20;37.80;;;;;;6067696;23;20381;-79
2023/05/23 12:54:33;;;;;;;3.63;3.00;;;30.50;36.00;;;;;;6069277;23;20377;-79
2023/05/23 12:56:59;;;;;;;3.87;3.30;;;30.70;34.80;;;;;;6067487;23;20382;-80